Terminal Aerodrome Forecast
Issued by NWS

Home | Current Version | Previous Version | Text Only | Print | Product List | Glossary On
Versions: 1 2 3 4 5 6 7 8 9 10 11 12 13 14 15 16 17 18
108
FTUS41 KBGM 121738
TAFELM
TAF
KELM 121738Z 1218/1318 24012G22KT P6SM SCT045 BKN080
      TEMPO 1221/1301 OVC045
     FM130100 23008KT P6SM OVC045
      TEMPO 1303/1306 3SM -SHSN OVC025
     FM130600 31015G30KT 5SM -SHSN BLSN SCT025 BKN040
      TEMPO 1306/1309 3/4SM -SHSN BLSN OVC015=

USA.gov is the U.S. government's official web portal to all federal, state and local government web resources and services.